createdAt,value
2019-01-26T08:52:31.279Z,971.02
2019-01-26T08:53:31.229Z,970.91
2019-01-26T08:55:25.623Z,970.93
2019-01-26T08:56:25.500Z,970.92
2019-01-26T08:58:19.885Z,971.00
2019-01-26T08:59:19.889Z,971.00
2019-01-26T09:01:14.026Z,970.98
2019-01-26T09:02:14.221Z,971.02
2019-01-26T09:04:08.269Z,970.87
2019-01-26T09:05:08.343Z,970.94
2019-01-26T09:07:02.600Z,970.98
2019-01-26T09:08:02.613Z,970.85
2019-01-26T09:09:56.880Z,970.79
2019-01-26T09:10:56.919Z,970.85
2019-01-26T09:12:51.244Z,970.81
2019-01-26T09:13:51.233Z,970.75
2019-01-26T09:15:45.717Z,970.77
2019-01-26T09:16:45.485Z,970.70
2019-01-26T09:18:39.809Z,970.77
2019-01-26T09:19:39.934Z,970.78
2019-01-26T09:21:34.082Z,970.73
2019-01-26T09:22:34.103Z,970.75
2019-01-26T09:24:28.494Z,970.68
2019-01-26T09:25:28.385Z,970.72
2019-01-26T09:27:22.655Z,970.63
2019-01-26T09:28:22.791Z,970.68
2019-01-26T09:30:17.021Z,970.60
2019-01-26T09:31:16.998Z,970.67
2019-01-26T09:33:11.268Z,970.58
2019-01-26T09:34:11.405Z,970.57
2019-01-26T09:36:05.511Z,970.60
2019-01-26T09:37:05.530Z,970.58
2019-01-26T09:38:59.785Z,970.66
2019-01-26T09:39:59.815Z,970.58
2019-01-26T09:41:54.100Z,970.64
2019-01-26T09:42:54.097Z,970.58
2019-01-26T09:44:48.358Z,970.57
2019-01-26T09:45:48.402Z,970.52
2019-01-26T09:47:42.664Z,970.48
2019-01-26T09:48:46.280Z,970.47
2019-01-26T09:50:36.971Z,970.45
2019-01-26T09:51:36.989Z,970.52
2019-01-26T09:53:31.254Z,970.53
2019-01-26T09:54:31.307Z,970.62
2019-01-26T09:56:25.683Z,970.49
2019-01-26T09:57:25.580Z,970.50
2019-01-26T09:59:19.960Z,970.47
2019-01-26T10:00:19.862Z,970.45
2019-01-26T10:02:14.118Z,970.48
2019-01-26T10:03:14.195Z,970.44
2019-01-26T10:05:08.398Z,970.54
2019-01-26T10:06:08.432Z,970.51
2019-01-26T10:08:02.675Z,970.61
2019-01-26T10:09:02.719Z,970.55
2019-01-26T10:10:57.437Z,970.38
2019-01-26T10:11:57.077Z,970.39
2019-01-26T10:13:51.212Z,970.49
2019-01-26T10:14:51.275Z,970.48
2019-01-26T10:16:45.546Z,970.42
2019-01-26T10:17:46.161Z,970.42
2019-01-26T10:19:45.119Z,970.39
2019-01-26T10:20:39.758Z,970.32
2019-01-26T10:22:34.129Z,970.35
2019-01-26T10:23:34.101Z,970.22
2019-01-26T10:25:28.437Z,970.39
2019-01-26T10:26:28.425Z,970.31
2019-01-26T10:28:22.648Z,970.24
2019-01-26T10:29:22.734Z,970.33
2019-01-26T10:31:17.084Z,970.19
2019-01-26T10:32:17.084Z,970.18
2019-01-26T10:34:11.323Z,970.18
2019-01-26T10:35:11.375Z,970.18
2019-01-26T10:37:05.779Z,970.22
2019-01-26T10:38:05.677Z,970.22
2019-01-26T10:39:59.973Z,970.21
2019-01-26T10:40:59.970Z,970.04
2019-01-26T10:42:55.160Z,970.19
2019-01-26T10:43:55.205Z,970.18
2019-01-26T10:45:48.475Z,970.17
2019-01-26T10:46:48.524Z,970.18
2019-01-26T10:48:42.775Z,970.20
2019-01-26T10:49:53.053Z,970.10
2019-01-26T10:51:37.150Z,970.02
2019-01-26T10:52:37.356Z,970.09
2019-01-26T10:54:31.318Z,969.95
2019-01-26T10:55:31.352Z,969.99
2019-01-26T10:57:25.626Z,969.98
2019-01-26T10:58:25.615Z,969.93
2019-01-26T11:00:19.865Z,969.99
2019-01-26T11:01:19.871Z,969.87
2019-01-26T11:03:14.134Z,969.93
2019-01-26T11:04:14.100Z,969.79
2019-01-26T11:06:08.386Z,969.78
2019-01-26T11:07:08.411Z,969.91
2019-01-26T11:08:08.428Z,969.91
2019-01-26T11:09:08.470Z,970.00
2019-01-26T11:10:08.494Z,969.97
2019-01-26T11:11:08.536Z,969.92
2019-01-26T11:12:08.571Z,969.99
2019-01-26T11:13:08.611Z,969.98
2019-01-26T11:14:08.703Z,969.84
2019-01-26T11:15:08.900Z,969.65
2019-01-26T11:16:08.860Z,969.77
2019-01-26T11:17:08.765Z,969.83
2019-01-26T11:18:08.865Z,969.80
2019-01-26T11:19:08.833Z,969.85
2019-01-26T11:20:08.838Z,969.84
2019-01-26T11:21:08.857Z,969.80
2019-01-26T11:22:08.909Z,969.74
2019-01-26T11:23:08.997Z,969.65
2019-01-26T11:24:09.023Z,969.75
2019-01-26T11:25:09.033Z,969.71
2019-01-26T11:26:09.065Z,969.72
2019-01-26T11:27:09.108Z,969.73
2019-01-26T11:28:09.159Z,969.79
2019-01-26T11:29:09.189Z,969.69
2019-01-26T11:30:09.204Z,969.60
2019-01-26T11:31:09.259Z,969.69
2019-01-26T11:32:09.294Z,969.78
2019-01-26T11:33:09.312Z,969.48
2019-01-26T11:34:09.467Z,969.74
2019-01-26T11:35:09.377Z,969.80
2019-01-26T11:36:09.428Z,969.77
2019-01-26T11:37:09.478Z,969.73
2019-01-26T11:38:09.517Z,969.73
2019-01-26T11:39:18.160Z,969.60
2019-01-26T11:40:09.587Z,969.67
2019-01-26T11:41:09.833Z,969.60
2019-01-26T11:42:09.635Z,969.65
2019-01-26T11:43:09.983Z,969.71
2019-01-26T11:44:09.778Z,969.67
2019-01-26T11:45:09.810Z,969.79
2019-01-26T11:46:09.870Z,969.67
2019-01-26T11:47:09.840Z,969.69
2019-01-26T11:48:09.871Z,969.47
2019-01-26T11:49:15.066Z,969.56
2019-01-26T11:50:09.940Z,969.61
2019-01-26T11:51:10.128Z,969.59
2019-01-26T11:52:10.035Z,969.55
2019-01-26T11:53:10.084Z,969.54
2019-01-26T11:54:10.260Z,969.51
2019-01-26T11:55:10.211Z,969.47
2019-01-26T11:56:10.168Z,969.64
2019-01-26T11:57:10.307Z,969.57
2019-01-26T11:58:10.214Z,969.63
2019-01-26T11:59:10.248Z,969.65
2019-01-26T12:00:10.294Z,969.58
2019-01-26T12:01:10.332Z,969.49
2019-01-26T12:02:10.393Z,969.46
2019-01-26T12:03:10.382Z,969.57
2019-01-26T12:04:10.433Z,969.43
2019-01-26T12:05:10.470Z,969.44
2019-01-26T12:06:10.513Z,969.48
2019-01-26T12:07:10.651Z,969.51
2019-01-26T12:08:10.588Z,969.59
2019-01-26T12:09:10.622Z,969.58
2019-01-26T12:10:10.860Z,969.46
2019-01-26T12:11:10.686Z,969.49
2019-01-26T12:12:10.698Z,969.40
2019-01-26T12:13:10.819Z,969.38
2019-01-26T12:14:10.790Z,969.39
2019-01-26T12:15:10.834Z,969.30
2019-01-26T12:16:10.877Z,969.38
2019-01-26T12:17:10.908Z,969.36
2019-01-26T12:18:10.939Z,969.42
2019-01-26T12:19:11.114Z,969.43
2019-01-26T12:20:11.027Z,969.46
2019-01-26T12:21:11.075Z,969.44
2019-01-26T12:22:11.146Z,969.40
2019-01-26T12:23:11.153Z,969.34
2019-01-26T12:24:12.033Z,969.38
2019-01-26T12:25:11.190Z,969.37
2019-01-26T12:26:11.223Z,969.16
2019-01-26T12:27:11.278Z,969.35
2019-01-26T12:28:11.315Z,969.44
2019-01-26T12:29:11.348Z,969.34
2019-01-26T12:30:11.396Z,969.40
2019-01-26T12:31:11.426Z,969.36
2019-01-26T12:32:11.455Z,969.42
2019-01-26T12:33:11.518Z,969.41
2019-01-26T12:34:11.500Z,969.30
2019-01-26T12:35:11.571Z,969.26
2019-01-26T12:36:11.589Z,969.34
2019-01-26T12:37:11.632Z,969.31
2019-01-26T12:38:11.671Z,969.29
2019-01-26T12:39:11.725Z,969.31
2019-01-26T12:40:11.713Z,969.28
2019-01-26T12:41:11.748Z,969.28
2019-01-26T12:42:11.792Z,969.34
2019-01-26T12:43:11.868Z,969.25
2019-01-26T12:44:11.956Z,969.35
2019-01-26T12:45:11.911Z,969.45
2019-01-26T12:46:11.970Z,969.32
2019-01-26T12:47:16.941Z,969.35
2019-01-26T12:48:12.026Z,969.31
2019-01-26T12:49:12.072Z,969.36
2019-01-26T12:50:12.071Z,969.30
2019-01-26T12:51:12.152Z,969.35
2019-01-26T12:52:12.160Z,969.29
2019-01-26T12:53:13.126Z,969.32
2019-01-26T12:54:12.231Z,969.28
2019-01-26T12:55:12.279Z,969.38
2019-01-26T12:56:12.325Z,969.33
2019-01-26T12:57:12.350Z,969.31
2019-01-26T12:58:12.411Z,969.32
2019-01-26T12:59:12.543Z,969.22
2019-01-26T13:00:12.426Z,969.34
2019-01-26T13:01:12.490Z,969.37
2019-01-26T13:02:12.509Z,969.34
2019-01-26T13:03:12.550Z,969.39
2019-01-26T13:04:12.776Z,969.43
2019-01-26T13:05:12.665Z,969.34
2019-01-26T13:06:12.686Z,969.23
2019-01-26T13:07:12.722Z,969.35
2019-01-26T13:08:12.714Z,969.30
2019-01-26T13:09:12.809Z,969.32
2019-01-26T13:10:12.819Z,969.27
2019-01-26T13:11:13.051Z,969.26
2019-01-26T13:12:12.860Z,969.27
2019-01-26T13:13:12.943Z,969.33
2019-01-26T13:14:13.086Z,969.29
2019-01-26T13:15:15.397Z,969.38
2019-01-26T13:16:13.789Z,969.27
2019-01-26T13:17:13.116Z,969.34
2019-01-26T13:18:13.184Z,969.25
2019-01-26T13:19:13.151Z,969.29
2019-01-26T13:20:13.199Z,969.28
2019-01-26T13:21:13.240Z,969.27
2019-01-26T13:22:13.235Z,969.32
2019-01-26T13:23:13.292Z,969.09
2019-01-26T13:24:13.457Z,969.19
2019-01-26T13:25:16.552Z,969.30
2019-01-26T13:26:20.203Z,969.29
2019-01-26T13:27:22.938Z,969.19
2019-01-26T13:29:07.731Z,969.24
2019-01-26T13:30:07.711Z,969.16
2019-01-26T13:32:01.987Z,969.20
2019-01-26T13:33:02.021Z,969.02
2019-01-26T13:35:05.165Z,969.26
2019-01-26T13:35:56.312Z,969.26
2019-01-26T13:37:50.569Z,969.25
2019-01-26T13:38:50.697Z,969.23
2019-01-26T13:40:44.990Z,969.29
2019-01-26T13:41:45.033Z,969.39
2019-01-26T13:43:39.283Z,969.29
2019-01-26T13:44:39.142Z,969.29
2019-01-26T13:46:33.659Z,969.21
2019-01-26T13:47:37.779Z,969.22
2019-01-26T13:49:27.753Z,969.25
2019-01-26T13:50:27.783Z,969.36
2019-01-26T13:52:22.181Z,969.33
2019-01-26T13:53:22.217Z,969.37
2019-01-26T13:55:16.376Z,969.20
2019-01-26T13:56:16.400Z,969.25
